sensor_id;sensor_type;location;lat;lon;timestamp;pressure;altitude;pressure_sealevel;temperature;humidity
62122;BME280;48108;47.532;19.084;2022-11-09T05:12:05;100865.34;;;7.53;100.00
62122;BME280;48108;47.532;19.084;2022-11-09T05:15:08;100871.94;;;7.59;100.00
62122;BME280;48108;47.532;19.084;2022-11-09T05:18:11;100870.41;;;7.56;100.00
62122;BME280;48108;47.532;19.084;2022-11-09T05:21:14;100872.38;;;7.54;100.00
62122;BME280;48108;47.532;19.084;2022-11-09T05:24:17;100871.41;;;7.55;100.00
62122;BME280;48108;47.532;19.084;2022-11-09T05:27:20;100874.63;;;7.59;100.00
62122;BME280;48108;47.532;19.084;2022-11-09T05:30:23;100871.50;;;7.63;100.00
62122;BME280;48108;47.532;19.084;2022-11-09T05:33:25;100878.38;;;7.76;100.00
62122;BME280;48108;47.532;19.084;2022-11-09T05:36:29;100880.47;;;7.72;100.00
62122;BME280;48108;47.532;19.084;2022-11-09T05:39:32;100875.72;;;7.66;100.00
62122;BME280;48108;47.532;19.084;2022-11-09T05:42:38;100875.72;;;7.66;100.00
62122;BME280;48108;47.532;19.084;2022-11-09T05:45:42;100866.00;;;7.65;100.00
62122;BME280;48108;47.532;19.084;2022-11-09T05:48:46;100872.78;;;7.59;100.00
62122;BME280;48108;47.532;19.084;2022-11-09T05:51:48;100872.66;;;7.61;100.00
62122;BME280;48108;47.532;19.084;2022-11-09T05:54:51;100878.59;;;7.45;100.00
62122;BME280;48108;47.532;19.084;2022-11-09T05:57:54;100882.53;;;7.50;100.00
62122;BME280;48108;47.532;19.084;2022-11-09T06:00:57;100875.50;;;7.49;100.00
62122;BME280;48108;47.532;19.084;2022-11-09T06:04:01;100885.09;;;7.52;100.00
62122;BME280;48108;47.532;19.084;2022-11-09T06:07:04;100893.56;;;7.47;100.00
62122;BME280;48108;47.532;19.084;2022-11-09T06:10:07;100890.16;;;7.45;100.00
62122;BME280;48108;47.532;19.084;2022-11-09T06:13:11;100892.28;;;7.42;100.00
62122;BME280;48108;47.532;19.084;2022-11-09T06:16:14;100895.38;;;7.47;100.00
62122;BME280;48108;47.532;19.084;2022-11-09T06:19:16;100897.34;;;7.45;100.00
62122;BME280;48108;47.532;19.084;2022-11-09T06:22:19;100902.00;;;7.53;100.00
62122;BME280;48108;47.532;19.084;2022-11-09T06:25:21;100895.06;;;7.60;100.00
62122;BME280;48108;47.532;19.084;2022-11-09T06:28:24;100899.44;;;7.61;100.00
62122;BME280;48108;47.532;19.084;2022-11-09T06:31:27;100895.09;;;7.50;100.00
62122;BME280;48108;47.532;19.084;2022-11-09T06:34:30;100907.19;;;7.54;100.00
62122;BME280;48108;47.532;19.084;2022-11-09T06:37:33;100906.94;;;7.47;100.00
62122;BME280;48108;47.532;19.084;2022-11-09T06:40:36;100904.59;;;7.35;100.00
62122;BME280;48108;47.532;19.084;2022-11-09T06:43:38;100907.94;;;7.46;100.00
62122;BME280;48108;47.532;19.084;2022-11-09T06:46:41;100909.19;;;7.42;100.00
62122;BME280;48108;47.532;19.084;2022-11-09T06:49:43;100907.94;;;7.37;100.00
62122;BME280;48108;47.532;19.084;2022-11-09T06:52:46;100902.00;;;7.43;100.00
62122;BME280;48108;47.532;19.084;2022-11-09T06:55:49;100908.06;;;7.45;100.00
62122;BME280;48108;47.532;19.084;2022-11-09T06:58:52;100907.53;;;7.41;100.00
62122;BME280;48108;47.532;19.084;2022-11-09T07:01:55;100904.97;;;7.40;100.00
62122;BME280;48108;47.532;19.084;2022-11-09T07:05:03;100903.25;;;7.48;100.00
62122;BME280;48108;47.532;19.084;2022-11-09T07:08:06;100906.81;;;7.49;100.00
62122;BME280;48108;47.532;19.084;2022-11-09T07:11:11;100910.16;;;7.61;100.00
62122;BME280;48108;47.532;19.084;2022-11-09T07:14:14;100903.94;;;7.70;100.00
62122;BME280;48108;47.532;19.084;2022-11-09T07:17:17;100900.12;;;7.72;100.00
62122;BME280;48108;47.532;19.084;2022-11-09T07:20:20;100898.97;;;7.75;100.00
62122;BME280;48108;47.532;19.084;2022-11-09T07:23:23;100897.53;;;7.81;100.00
62122;BME280;48108;47.532;19.084;2022-11-09T07:26:26;100900.91;;;7.83;100.00
62122;BME280;48108;47.532;19.084;2022-11-09T07:29:29;100898.88;;;7.94;100.00
62122;BME280;48108;47.532;19.084;2022-11-09T07:32:35;100897.34;;;7.92;100.00
62122;BME280;48108;47.532;19.084;2022-11-09T07:36:00;100901.97;;;8.00;100.00
62122;BME280;48108;47.532;19.084;2022-11-09T07:39:05;100905.84;;;8.15;100.00
62122;BME280;48108;47.532;19.084;2022-11-09T07:42:08;100899.34;;;8.17;100.00
62122;BME280;48108;47.532;19.084;2022-11-09T07:45:14;100893.25;;;8.25;100.00
62122;BME280;48108;47.532;19.084;2022-11-09T07:48:17;100895.81;;;8.45;100.00
62122;BME280;48108;47.532;19.084;2022-11-09T07:51:20;100889.78;;;8.43;100.00
62122;BME280;48108;47.532;19.084;2022-11-09T07:54:23;100890.09;;;8.57;100.00
62122;BME280;48108;47.532;19.084;2022-11-09T07:57:26;100894.31;;;8.32;100.00
62122;BME280;48108;47.532;19.084;2022-11-09T08:00:31;100891.50;;;8.34;100.00
62122;BME280;48108;47.532;19.084;2022-11-09T08:03:34;100895.16;;;8.33;100.00
62122;BME280;48108;47.532;19.084;2022-11-09T08:06:37;100896.97;;;8.42;100.00
62122;BME280;48108;47.532;19.084;2022-11-09T08:09:40;100890.25;;;8.28;100.00
62122;BME280;48108;47.532;19.084;2022-11-09T08:12:43;100890.94;;;8.30;100.00
62122;BME280;48108;47.532;19.084;2022-11-09T08:15:46;100892.38;;;8.25;100.00
62122;BME280;48108;47.532;19.084;2022-11-09T08:18:49;100887.00;;;8.25;100.00
62122;BME280;48108;47.532;19.084;2022-11-09T08:21:52;100889.41;;;8.28;100.00
62122;BME280;48108;47.532;19.084;2022-11-09T08:24:58;100882.97;;;8.48;100.00
62122;BME280;48108;47.532;19.084;2022-11-09T08:28:01;100888.37;;;8.38;100.00
62122;BME280;48108;47.532;19.084;2022-11-09T08:31:06;100881.72;;;8.43;100.00
62122;BME280;48108;47.532;19.084;2022-11-09T08:34:11;100881.13;;;8.49;100.00
62122;BME280;48108;47.532;19.084;2022-11-09T08:37:15;100876.50;;;8.59;100.00
62122;BME280;48108;47.532;19.084;2022-11-09T08:40:23;100883.94;;;8.65;100.00
62122;BME280;48108;47.532;19.084;2022-11-09T08:43:26;100874.53;;;8.61;100.00
62122;BME280;48108;47.532;19.084;2022-11-09T08:46:29;100876.72;;;8.66;100.00
62122;BME280;48108;47.532;19.084;2022-11-09T08:49:32;100877.59;;;8.66;100.00
62122;BME280;48108;47.532;19.084;2022-11-09T08:52:34;100875.34;;;8.79;100.00
62122;BME280;48108;47.532;19.084;2022-11-09T08:55:37;100870.38;;;8.84;100.00
62122;BME280;48108;47.532;19.084;2022-11-09T08:58:40;100884.03;;;8.73;100.00
62122;BME280;48108;47.532;19.084;2022-11-09T09:01:42;100885.03;;;8.72;100.00
62122;BME280;48108;47.532;19.084;2022-11-09T09:04:45;100879.75;;;8.80;100.00
62122;BME280;48108;47.532;19.084;2022-11-09T09:07:48;100877.06;;;8.80;100.00
62122;BME280;48108;47.532;19.084;2022-11-09T09:10:51;100879.97;;;8.69;100.00
62122;BME280;48108;47.532;19.084;2022-11-09T09:13:53;100885.19;;;8.71;100.00
62122;BME280;48108;47.532;19.084;2022-11-09T09:16:56;100889.78;;;8.78;100.00
62122;BME280;48108;47.532;19.084;2022-11-09T09:19:58;100886.62;;;8.83;100.00
62122;BME280;48108;47.532;19.084;2022-11-09T09:23:01;100892.38;;;8.88;100.00
62122;BME280;48108;47.532;19.084;2022-11-09T09:26:04;100887.53;;;8.92;100.00
62122;BME280;48108;47.532;19.084;2022-11-09T09:29:08;100887.09;;;8.96;100.00
62122;BME280;48108;47.532;19.084;2022-11-09T09:32:13;100891.78;;;8.94;100.00
62122;BME280;48108;47.532;19.084;2022-11-09T09:35:16;100886.34;;;9.04;100.00
62122;BME280;48108;47.532;19.084;2022-11-09T09:38:18;100889.19;;;8.84;100.00
62122;BME280;48108;47.532;19.084;2022-11-09T09:47:55;100877.09;;;9.06;100.00
62122;BME280;48108;47.532;19.084;2022-11-09T09:51:07;100876.31;;;9.14;100.00
62122;BME280;48108;47.532;19.084;2022-11-09T09:57:22;100864.56;;;9.15;100.00
62122;BME280;48108;47.532;19.084;2022-11-09T10:00:26;100864.53;;;9.07;100.00
62122;BME280;48108;47.532;19.084;2022-11-09T10:03:30;100850.09;;;9.08;100.00
62122;BME280;48108;47.532;19.084;2022-11-09T10:10:16;100853.06;;;9.23;100.00
62122;BME280;48108;47.532;19.084;2022-11-09T10:13:46;100849.31;;;9.16;100.00
62122;BME280;48108;47.532;19.084;2022-11-09T10:17:02;100843.84;;;9.25;100.00
62122;BME280;48108;47.532;19.084;2022-11-09T10:27:35;100850.81;;;9.36;100.00
62122;BME280;48108;47.532;19.084;2022-11-09T10:30:39;100844.56;;;9.36;100.00
62122;BME280;48108;47.532;19.084;2022-11-09T10:33:45;100838.41;;;9.43;100.00
62122;BME280;48108;47.532;19.084;2022-11-09T10:37:09;100833.16;;;9.42;100.00
62122;BME280;48108;47.532;19.084;2022-11-09T10:40:20;100838.09;;;9.46;100.00
62122;BME280;48108;47.532;19.084;2022-11-09T10:43:42;100831.19;;;9.44;100.00
62122;BME280;48108;47.532;19.084;2022-11-09T10:47:12;100827.00;;;9.49;100.00
62122;BME280;48108;47.532;19.084;2022-11-09T10:50:38;100821.34;;;9.61;100.00
62122;BME280;48108;47.532;19.084;2022-11-09T10:54:20;100821.88;;;9.64;100.00
62122;BME280;48108;47.532;19.084;2022-11-09T10:57:57;100811.56;;;9.51;100.00
62122;BME280;48108;47.532;19.084;2022-11-09T11:01:22;100809.81;;;9.34;100.00
62122;BME280;48108;47.532;19.084;2022-11-09T11:04:43;100805.72;;;9.30;100.00
62122;BME280;48108;47.532;19.084;2022-11-09T11:08:22;100812.31;;;9.36;100.00
62122;BME280;48108;47.532;19.084;2022-11-09T11:11:44;100809.16;;;9.40;100.00
62122;BME280;48108;47.532;19.084;2022-11-09T11:15:28;100805.12;;;9.36;100.00
62122;BME280;48108;47.532;19.084;2022-11-09T11:18:49;100803.97;;;9.47;100.00
62122;BME280;48108;47.532;19.084;2022-11-09T11:25:32;100800.63;;;9.45;100.00
62122;BME280;48108;47.532;19.084;2022-11-09T11:28:59;100805.69;;;9.48;100.00
62122;BME280;48108;47.532;19.084;2022-11-09T11:32:22;100793.75;;;9.50;100.00
62122;BME280;48108;47.532;19.084;2022-11-09T11:43:27;100795.59;;;9.50;100.00
62122;BME280;48108;47.532;19.084;2022-11-09T11:46:59;100793.88;;;9.41;100.00
62122;BME280;48108;47.532;19.084;2022-11-09T11:50:39;100801.62;;;9.44;100.00
62122;BME280;48108;47.532;19.084;2022-11-09T11:54:08;100796.75;;;9.39;100.00
62122;BME280;48108;47.532;19.084;2022-11-09T12:01:34;100784.53;;;9.19;100.00
62122;BME280;48108;47.532;19.084;2022-11-09T12:13:08;100783.75;;;9.35;100.00
62122;BME280;48108;47.532;19.084;2022-11-09T12:28:37;100772.06;;;9.44;100.00
62122;BME280;48108;47.532;19.084;2022-11-09T12:36:35;100773.19;;;9.33;100.00
62122;BME280;48108;47.532;19.084;2022-11-09T12:40:05;100768.13;;;9.30;100.00
62122;BME280;48108;47.532;19.084;2022-11-09T12:47:04;100764.50;;;9.39;100.00
62122;BME280;48108;47.532;19.084;2022-11-09T12:50:27;100765.97;;;9.34;100.00
62122;BME280;48108;47.532;19.084;2022-11-09T12:53:48;100755.41;;;9.40;100.00
62122;BME280;48108;47.532;19.084;2022-11-09T12:57:28;100760.84;;;9.48;100.00
62122;BME280;48108;47.532;19.084;2022-11-09T13:00:53;100756.97;;;9.51;100.00
62122;BME280;48108;47.532;19.084;2022-11-09T13:04:16;100764.50;;;9.47;100.00
62122;BME280;48108;47.532;19.084;2022-11-09T13:07:45;100757.12;;;9.49;100.00
62122;BME280;48108;47.532;19.084;2022-11-09T13:11:17;100752.31;;;9.61;100.00
62122;BME280;48108;47.532;19.084;2022-11-09T13:14:39;100762.13;;;9.44;100.00
62122;BME280;48108;47.532;19.084;2022-11-09T13:19:06;100756.25;;;9.41;100.00
62122;BME280;48108;47.532;19.084;2022-11-09T13:36:27;100743.94;;;9.30;100.00
62122;BME280;48108;47.532;19.084;2022-11-09T13:39:48;100741.09;;;9.31;100.00
62122;BME280;48108;47.532;19.084;2022-11-09T13:46:36;100751.94;;;9.14;100.00
62122;BME280;48108;47.532;19.084;2022-11-09T13:49:58;100748.59;;;9.20;100.00
62122;BME280;48108;47.532;19.084;2022-11-09T13:56:51;100735.13;;;9.12;100.00
62122;BME280;48108;47.532;19.084;2022-11-09T14:00:22;100741.87;;;9.16;100.00
62122;BME280;48108;47.532;19.084;2022-11-09T14:03:49;100739.19;;;9.16;100.00
62122;BME280;48108;47.532;19.084;2022-11-09T14:10:44;100741.87;;;9.16;100.00
62122;BME280;48108;47.532;19.084;2022-11-09T14:24:41;100745.34;;;9.08;100.00
62122;BME280;48108;47.532;19.084;2022-11-09T14:28:19;100747.19;;;9.07;100.00
62122;BME280;48108;47.532;19.084;2022-11-09T14:31:41;100747.66;;;9.03;100.00
62122;BME280;48108;47.532;19.084;2022-11-09T14:38:44;100739.72;;;8.93;100.00
62122;BME280;48108;47.532;19.084;2022-11-09T14:42:11;100733.66;;;8.91;100.00
62122;BME280;48108;47.532;19.084;2022-11-09T14:45:48;100736.44;;;9.07;100.00
62122;BME280;48108;47.532;19.084;2022-11-09T14:49:11;100735.56;;;8.99;100.00
62122;BME280;48108;47.532;19.084;2022-11-09T14:52:33;100743.41;;;8.92;100.00
62122;BME280;48108;47.532;19.084;2022-11-09T14:55:57;100743.41;;;8.92;100.00
62122;BME280;48108;47.532;19.084;2022-11-09T14:59:46;100744.25;;;8.93;100.00
62122;BME280;48108;47.532;19.084;2022-11-09T15:03:25;100740.94;;;8.99;100.00
62122;BME280;48108;47.532;19.084;2022-11-09T15:06:55;100747.00;;;9.01;100.00
62122;BME280;48108;47.532;19.084;2022-11-09T15:10:19;100744.72;;;8.88;100.00
62122;BME280;48108;47.532;19.084;2022-11-09T15:13:40;100736.66;;;8.88;100.00
62122;BME280;48108;47.532;19.084;2022-11-09T15:17:14;100745.72;;;8.87;100.00
62122;BME280;48108;47.532;19.084;2022-11-09T15:20:35;100745.87;;;8.85;100.00
62122;BME280;48108;47.532;19.084;2022-11-09T15:27:32;100749.37;;;8.86;100.00
62122;BME280;48108;47.532;19.084;2022-11-09T15:34:20;100749.19;;;8.79;100.00
62122;BME280;48108;47.532;19.084;2022-11-09T15:41:23;100753.09;;;8.85;100.00
62122;BME280;48108;47.532;19.084;2022-11-09T15:44:45;100749.25;;;8.88;100.00
62122;BME280;48108;47.532;19.084;2022-11-09T15:48:10;100744.00;;;8.86;100.00
62122;BME280;48108;47.532;19.084;2022-11-09T15:51:31;100741.97;;;8.80;100.00
62122;BME280;48108;47.532;19.084;2022-11-09T15:54:52;100742.88;;;8.89;100.00
62122;BME280;48108;47.532;19.084;2022-11-09T15:58:15;100740.16;;;8.80;100.00
62122;BME280;48108;47.532;19.084;2022-11-09T16:01:36;100743.19;;;8.85;100.00
62122;BME280;48108;47.532;19.084;2022-11-09T16:05:00;100737.66;;;8.87;100.00
62122;BME280;48108;47.532;19.084;2022-11-09T16:08:21;100731.47;;;8.87;100.00
62122;BME280;48108;47.532;19.084;2022-11-09T16:11:43;100748.72;;;8.84;100.00
62122;BME280;48108;47.532;19.084;2022-11-09T16:15:05;100752.06;;;8.86;100.00
62122;BME280;48108;47.532;19.084;2022-11-09T16:18:26;100753.09;;;8.85;100.00
62122;BME280;48108;47.532;19.084;2022-11-09T16:21:50;100747.88;;;8.83;100.00
62122;BME280;48108;47.532;19.084;2022-11-09T16:25:12;100752.94;;;8.87;100.00
62122;BME280;48108;47.532;19.084;2022-11-09T16:28:34;100748.72;;;8.84;100.00
62122;BME280;48108;47.532;19.084;2022-11-09T16:31:56;100752.06;;;8.86;100.00
62122;BME280;48108;47.532;19.084;2022-11-09T16:35:18;100753.25;;;8.83;100.00
62122;BME280;48108;47.532;19.084;2022-11-09T16:38:51;100757.31;;;8.88;100.00
62122;BME280;48108;47.532;19.084;2022-11-09T16:42:14;100749.97;;;8.98;100.00
62122;BME280;48108;47.532;19.084;2022-11-09T16:45:44;100754.69;;;8.96;100.00
62122;BME280;48108;47.532;19.084;2022-11-09T16:49:06;100742.91;;;8.97;100.00
62122;BME280;48108;47.532;19.084;2022-11-09T16:52:28;100748.16;;;8.98;100.00
62122;BME280;48108;47.532;19.084;2022-11-09T16:55:50;100745.78;;;8.95;100.00
62122;BME280;48108;47.532;19.084;2022-11-09T16:59:11;100750.84;;;8.98;100.00
62122;BME280;48108;47.532;19.084;2022-11-09T17:02:33;100747.97;;;9.00;100.00
